createdAt,value
2022-10-06T00:00:24.025Z,84
2022-10-06T00:00:56.209Z,84
2022-10-06T00:01:24.496Z,84
2022-10-06T00:01:55.110Z,84
2022-10-06T00:02:26.226Z,84
2022-10-06T00:02:57.142Z,84
2022-10-06T00:03:29.121Z,84
2022-10-06T00:04:01.828Z,84
2022-10-06T00:04:31.836Z,84
2022-10-06T00:05:19.881Z,84
2022-10-06T00:05:32.883Z,84
2022-10-06T00:06:03.131Z,84
2022-10-06T00:06:34.546Z,84
2022-10-06T00:07:05.173Z,85
2022-10-06T00:07:36.362Z,84
2022-10-06T00:09:47.537Z,84
2022-10-06T00:10:12.784Z,84
2022-10-06T00:11:25.871Z,84
2022-10-06T00:11:45.082Z,85
2022-10-06T00:12:15.830Z,84
2022-10-06T00:12:46.715Z,84
2022-10-06T00:13:17.555Z,85
2022-10-06T00:13:49.211Z,85
2022-10-06T00:14:19.306Z,85
2022-10-06T00:14:51.119Z,85
2022-10-06T00:15:25.730Z,85
2022-10-06T00:15:55.019Z,84
2022-10-06T00:16:25.566Z,84
2022-10-06T00:16:55.282Z,84
2022-10-06T00:17:29.776Z,84
2022-10-06T00:17:57.402Z,84
2022-10-06T00:18:27.927Z,84
2022-10-06T00:19:29.872Z,84
2022-10-06T00:20:00.543Z,84
2022-10-06T00:20:32.814Z,84
2022-10-06T00:21:05.459Z,84
2022-10-06T00:21:35.597Z,84
2022-10-06T00:22:05.321Z,84
2022-10-06T00:22:36.149Z,84
2022-10-06T00:23:25.747Z,84
2022-10-06T00:23:37.971Z,84
2022-10-06T00:24:08.831Z,84
2022-10-06T00:24:39.527Z,84
2022-10-06T00:25:15.117Z,84
2022-10-06T00:25:41.418Z,84
2022-10-06T00:26:15.307Z,84
2022-10-06T00:26:45.983Z,84
2022-10-06T00:27:15.050Z,85
2022-10-06T00:27:48.107Z,84
2022-10-06T00:28:16.947Z,85
2022-10-06T00:28:48.294Z,85
2022-10-06T00:29:20.617Z,84
2022-10-06T00:29:49.898Z,85
2022-10-06T00:30:31.268Z,85
2022-10-06T00:30:53.941Z,85
2022-10-06T00:31:25.393Z,85
2022-10-06T00:32:11.018Z,85
2022-10-06T00:32:26.244Z,85
2022-10-06T00:32:57.270Z,85
2022-10-06T00:33:39.083Z,85
2022-10-06T00:34:18.778Z,85
2022-10-06T00:34:29.265Z,85
2022-10-06T00:35:36.694Z,85
2022-10-06T00:36:04.965Z,85
2022-10-06T00:36:35.730Z,85
2022-10-06T00:38:08.902Z,85
2022-10-06T00:38:37.397Z,85
2022-10-06T00:39:09.331Z,85
2022-10-06T00:39:39.581Z,85
2022-10-06T00:40:11.022Z,85
2022-10-06T00:40:44.716Z,84
2022-10-06T00:41:11.954Z,85
2022-10-06T00:41:44.615Z,85
2022-10-06T00:42:15.621Z,85
2022-10-06T00:42:46.941Z,85
2022-10-06T00:43:17.161Z,85
2022-10-06T00:43:47.091Z,85
2022-10-06T00:44:20.485Z,85
2022-10-06T00:44:56.202Z,85
2022-10-06T00:45:20.672Z,85
2022-10-06T00:45:55.954Z,85
2022-10-06T00:46:21.894Z,85
2022-10-06T00:46:55.026Z,85
2022-10-06T00:47:28.737Z,85
2022-10-06T00:47:56.329Z,85
2022-10-06T00:48:27.954Z,85
2022-10-06T00:48:57.430Z,85
2022-10-06T00:49:47.021Z,85
2022-10-06T00:49:58.976Z,85
2022-10-06T00:50:29.929Z,85
2022-10-06T00:51:05.308Z,85
2022-10-06T00:51:33.622Z,85
2022-10-06T00:52:36.304Z,85
2022-10-06T00:53:06.945Z,85
2022-10-06T00:53:36.473Z,85
2022-10-06T00:54:07.552Z,85
2022-10-06T00:54:37.884Z,85
2022-10-06T00:55:11.489Z,85
2022-10-06T00:55:40.732Z,85
2022-10-06T00:56:11.009Z,85
2022-10-06T00:56:43.887Z,85
2022-10-06T00:57:13.407Z,85
2022-10-06T00:57:45.901Z,85
2022-10-06T00:58:16.436Z,85
2022-10-06T00:59:04.214Z,85
2022-10-06T00:59:18.740Z,85
2022-10-06T00:59:47.950Z,85
2022-10-06T01:00:27.912Z,85
2022-10-06T01:00:50.320Z,85
2022-10-06T01:01:28.775Z,85
2022-10-06T01:02:26.813Z,85
2022-10-06T01:03:16.091Z,85
2022-10-06T01:03:52.369Z,85
2022-10-06T01:04:17.581Z,85
2022-10-06T01:04:48.316Z,85
2022-10-06T01:05:18.896Z,85
2022-10-06T01:05:52.496Z,85
2022-10-06T01:06:22.552Z,85
2022-10-06T01:06:51.854Z,85
2022-10-06T01:07:26.272Z,85
2022-10-06T01:07:56.958Z,85
2022-10-06T01:08:26.956Z,85
2022-10-06T01:08:57.234Z,85
2022-10-06T01:09:27.097Z,85
2022-10-06T01:09:58.856Z,85
2022-10-06T01:10:28.989Z,85
2022-10-06T01:11:00.661Z,85
2022-10-06T01:11:37.418Z,85
2022-10-06T01:12:06.834Z,85
2022-10-06T01:12:32.686Z,85
2022-10-06T01:13:19.129Z,85
2022-10-06T01:13:41.982Z,85
2022-10-06T01:14:06.555Z,85
2022-10-06T01:14:36.782Z,85
2022-10-06T01:15:13.497Z,85
2022-10-06T01:15:40.534Z,85
2022-10-06T01:16:10.424Z,85
2022-10-06T01:16:40.928Z,85
2022-10-06T01:17:11.559Z,85
2022-10-06T01:17:42.601Z,85
2022-10-06T01:18:15.773Z,85
2022-10-06T01:18:46.710Z,85
2022-10-06T01:19:17.058Z,85
2022-10-06T01:20:07.263Z,85
2022-10-06T01:20:18.392Z,85
2022-10-06T01:20:48.600Z,85
2022-10-06T01:21:19.295Z,85
2022-10-06T01:21:50.590Z,85
2022-10-06T01:22:21.587Z,85
2022-10-06T01:23:09.867Z,86
2022-10-06T01:23:27.648Z,86
2022-10-06T01:23:57.792Z,86
2022-10-06T01:24:27.005Z,86
2022-10-06T01:24:57.398Z,86
2022-10-06T01:25:28.152Z,86
2022-10-06T01:25:58.884Z,86
2022-10-06T01:26:29.656Z,86
2022-10-06T01:27:01.086Z,86
2022-10-06T01:27:32.149Z,86
2022-10-06T01:28:06.042Z,86
2022-10-06T01:28:36.084Z,86
2022-10-06T01:29:07.023Z,86
2022-10-06T01:29:37.574Z,86
2022-10-06T01:30:10.642Z,86
2022-10-06T01:30:38.617Z,86
2022-10-06T01:31:08.700Z,86
2022-10-06T01:31:40.037Z,86
2022-10-06T01:32:43.355Z,86
2022-10-06T01:33:49.553Z,86
2022-10-06T01:34:17.906Z,87
2022-10-06T01:34:47.619Z,86
2022-10-06T01:35:18.284Z,86
2022-10-06T01:36:04.979Z,86
2022-10-06T01:36:18.835Z,86
2022-10-06T01:36:49.992Z,86
2022-10-06T01:37:21.090Z,86
2022-10-06T01:37:51.814Z,86
2022-10-06T01:38:22.733Z,86
2022-10-06T01:38:55.749Z,86
2022-10-06T01:39:27.510Z,86
2022-10-06T01:40:28.373Z,87
2022-10-06T01:40:58.536Z,86
2022-10-06T01:41:28.809Z,86
2022-10-06T01:41:59.743Z,87
2022-10-06T01:42:30.932Z,86
2022-10-06T01:43:02.199Z,86
2022-10-06T01:43:32.878Z,86
2022-10-06T01:44:03.655Z,86
2022-10-06T01:44:36.805Z,86
2022-10-06T01:45:08.394Z,86
2022-10-06T01:45:37.700Z,86
2022-10-06T01:46:07.918Z,87
2022-10-06T01:46:38.843Z,87
2022-10-06T01:47:09.877Z,87
2022-10-06T01:47:40.878Z,87
2022-10-06T01:48:17.837Z,87
2022-10-06T01:48:42.620Z,87
2022-10-06T01:49:14.324Z,87
2022-10-06T01:49:47.048Z,87
2022-10-06T01:50:17.874Z,87
2022-10-06T01:50:47.189Z,86
2022-10-06T01:51:17.823Z,87
2022-10-06T01:51:49.405Z,87
2022-10-06T01:52:19.405Z,87
2022-10-06T01:52:50.476Z,86
2022-10-06T01:53:22.222Z,86
2022-10-06T01:53:52.475Z,86
2022-10-06T01:54:25.314Z,86
2022-10-06T01:54:56.778Z,86
2022-10-06T01:55:27.859Z,86
2022-10-06T01:55:58.206Z,86
2022-10-06T01:56:29.131Z,86
2022-10-06T01:56:59.134Z,86
2022-10-06T01:57:30.809Z,86
2022-10-06T01:58:01.071Z,85
2022-10-06T01:58:32.163Z,85
2022-10-06T01:59:03.042Z,85
2022-10-06T01:59:34.820Z,85
2022-10-06T02:00:14.786Z,85
2022-10-06T02:00:38.597Z,85
2022-10-06T02:01:08.780Z,85
2022-10-06T02:01:38.416Z,85
2022-10-06T02:02:09.321Z,85
2022-10-06T02:02:39.749Z,84
2022-10-06T02:03:11.605Z,85
2022-10-06T02:03:41.500Z,84
2022-10-06T02:04:13.569Z,84
2022-10-06T02:04:43.789Z,84
2022-10-06T02:05:18.282Z,84
2022-10-06T02:05:47.655Z,84
2022-10-06T02:06:18.768Z,84
2022-10-06T02:06:49.101Z,84
2022-10-06T02:07:19.274Z,84
2022-10-06T02:07:50.262Z,84
2022-10-06T02:08:22.448Z,84
2022-10-06T02:08:52.501Z,84
2022-10-06T02:09:23.101Z,84
2022-10-06T02:09:54.039Z,84
2022-10-06T02:10:27.175Z,84
2022-10-06T02:10:57.940Z,83
2022-10-06T02:11:28.468Z,83
2022-10-06T02:11:57.912Z,83
2022-10-06T02:12:28.911Z,83
2022-10-06T02:12:59.775Z,84
2022-10-06T02:13:31.120Z,83
2022-10-06T02:14:01.872Z,83
2022-10-06T02:14:32.542Z,83
2022-10-06T02:15:07.463Z,83
2022-10-06T02:15:51.710Z,83
2022-10-06T02:16:07.498Z,83
2022-10-06T02:16:53.952Z,83
2022-10-06T02:17:08.350Z,83
2022-10-06T02:17:38.721Z,83
2022-10-06T02:18:28.084Z,83
2022-10-06T02:18:41.233Z,83
2022-10-06T02:19:42.567Z,83
2022-10-06T02:20:13.974Z,83
2022-10-06T02:20:45.295Z,83
2022-10-06T02:21:17.904Z,83
2022-10-06T02:21:48.470Z,83
2022-10-06T02:22:18.605Z,83
2022-10-06T02:22:48.770Z,83
2022-10-06T02:23:19.433Z,83
2022-10-06T02:24:22.010Z,82
2022-10-06T02:24:53.024Z,82
2022-10-06T02:25:38.534Z,82
2022-10-06T02:25:54.909Z,82
2022-10-06T02:26:29.020Z,82
2022-10-06T02:27:14.775Z,83
2022-10-06T02:27:29.302Z,83
2022-10-06T02:27:59.414Z,83
2022-10-06T02:28:31.036Z,82
2022-10-06T02:29:01.002Z,82
2022-10-06T02:29:49.223Z,82
2022-10-06T02:30:04.183Z,82
2022-10-06T02:30:34.519Z,82
2022-10-06T02:31:05.974Z,83
2022-10-06T02:31:38.390Z,83
2022-10-06T02:32:09.188Z,82
2022-10-06T02:32:39.078Z,82
2022-10-06T02:33:09.414Z,82
2022-10-06T02:33:40.015Z,82
2022-10-06T02:34:11.512Z,82
2022-10-06T02:34:41.963Z,82
2022-10-06T02:35:13.843Z,82
2022-10-06T02:35:45.733Z,83
2022-10-06T02:36:16.144Z,83
2022-10-06T02:36:48.265Z,83
2022-10-06T02:37:18.084Z,83
2022-10-06T02:37:49.182Z,83
2022-10-06T02:38:18.944Z,83
2022-10-06T02:38:50.112Z,83
2022-10-06T02:39:20.922Z,83
2022-10-06T02:39:52.118Z,83
2022-10-06T02:40:23.863Z,83
2022-10-06T02:40:53.915Z,83
2022-10-06T02:41:26.770Z,83
2022-10-06T02:41:57.784Z,83
2022-10-06T02:42:28.816Z,83
2022-10-06T02:42:58.782Z,83
2022-10-06T02:43:29.340Z,83
2022-10-06T02:43:59.890Z,83
2022-10-06T02:44:30.781Z,83
2022-10-06T02:45:02.545Z,83
2022-10-06T02:45:32.610Z,83
2022-10-06T02:46:04.373Z,84
2022-10-06T02:46:34.831Z,84
2022-10-06T02:47:08.472Z,84
2022-10-06T02:47:39.160Z,84
2022-10-06T02:48:08.814Z,84
2022-10-06T02:48:39.002Z,84
2022-10-06T02:49:10.202Z,84
2022-10-06T02:49:40.969Z,84
2022-10-06T02:50:18.688Z,84
2022-10-06T02:50:42.766Z,84
2022-10-06T02:51:14.268Z,84
2022-10-06T02:51:44.808Z,84
2022-10-06T02:52:18.424Z,84
2022-10-06T02:52:48.335Z,84
2022-10-06T02:53:18.964Z,84
2022-10-06T02:53:49.214Z,84
2022-10-06T02:54:19.684Z,84
2022-10-06T02:54:51.114Z,84
2022-10-06T02:55:24.839Z,84
2022-10-06T02:55:52.946Z,84
2022-10-06T02:56:24.212Z,84
2022-10-06T02:56:55.227Z,85
2022-10-06T02:57:28.442Z,84
2022-10-06T02:57:59.175Z,84
2022-10-06T02:58:30.016Z,84
2022-10-06T02:58:59.683Z,84
2022-10-06T02:59:29.927Z,85
2022-10-06T03:00:02.335Z,84
2022-10-06T03:00:32.585Z,84
2022-10-06T03:01:02.946Z,84
2022-10-06T03:01:33.979Z,85
2022-10-06T03:02:04.928Z,85
2022-10-06T03:02:38.576Z,85
2022-10-06T03:03:08.797Z,85
2022-10-06T03:03:38.690Z,85
2022-10-06T03:04:09.204Z,85
2022-10-06T03:04:39.849Z,85
2022-10-06T03:05:11.170Z,85
2022-10-06T03:05:42.183Z,85
2022-10-06T03:06:13.739Z,85
2022-10-06T03:07:17.465Z,85
2022-10-06T03:07:47.993Z,85
2022-10-06T03:08:19.152Z,85
2022-10-06T03:08:49.110Z,85
2022-10-06T03:09:50.640Z,85
2022-10-06T03:10:21.997Z,85
2022-10-06T03:10:52.899Z,85
2022-10-06T03:11:23.554Z,86
2022-10-06T03:11:54.097Z,85
2022-10-06T03:12:25.477Z,85
2022-10-06T03:12:58.540Z,86
2022-10-06T03:13:29.353Z,86
2022-10-06T03:13:59.352Z,86
2022-10-06T03:14:29.946Z,86
2022-10-06T03:15:00.967Z,86
2022-10-06T03:15:31.752Z,87
2022-10-06T03:16:02.520Z,87
2022-10-06T03:16:33.147Z,87
2022-10-06T03:17:04.771Z,87
2022-10-06T03:17:35.273Z,87
2022-10-06T03:18:07.419Z,87
2022-10-06T03:18:39.440Z,87
2022-10-06T03:19:09.353Z,87
2022-10-06T03:19:39.857Z,87
2022-10-06T03:20:13.891Z,87
2022-10-06T03:20:42.459Z,87
2022-10-06T03:21:12.455Z,87
2022-10-06T03:21:43.162Z,87
2022-10-06T03:22:49.642Z,87
2022-10-06T03:23:16.251Z,87
2022-10-06T03:23:50.857Z,87
2022-10-06T03:24:19.846Z,87
2022-10-06T03:24:49.769Z,87
2022-10-06T03:25:20.324Z,87
2022-10-06T03:25:51.198Z,87
2022-10-06T03:26:22.634Z,87
2022-10-06T03:26:52.957Z,87
2022-10-06T03:27:24.306Z,87
2022-10-06T03:27:55.113Z,88
2022-10-06T03:28:27.855Z,87
2022-10-06T03:28:59.649Z,87
2022-10-06T03:29:29.706Z,87
2022-10-06T03:30:00.659Z,87
2022-10-06T03:30:30.711Z,87
2022-10-06T03:31:01.321Z,87
2022-10-06T03:31:32.382Z,87
2022-10-06T03:32:03.011Z,87
2022-10-06T03:32:34.366Z,88
2022-10-06T03:33:05.073Z,88
2022-10-06T03:33:36.979Z,88
2022-10-06T03:34:08.940Z,88
2022-10-06T03:34:39.752Z,88
2022-10-06T03:35:10.048Z,88
2022-10-06T03:35:40.299Z,89
2022-10-06T03:36:11.157Z,89
2022-10-06T03:36:42.691Z,89
2022-10-06T03:37:13.018Z,89
2022-10-06T03:37:44.137Z,89
2022-10-06T03:38:15.253Z,90
2022-10-06T03:38:48.998Z,90
2022-10-06T03:39:18.909Z,90
2022-10-06T03:39:50.409Z,91
2022-10-06T03:40:20.250Z,91
2022-10-06T03:40:50.377Z,91
2022-10-06T03:41:21.477Z,91
2022-10-06T03:41:52.310Z,91
2022-10-06T03:42:23.076Z,92
2022-10-06T03:42:54.246Z,92
2022-10-06T03:43:25.258Z,92
2022-10-06T03:43:56.210Z,92
2022-10-06T03:44:29.883Z,92
2022-10-06T03:45:00.027Z,92
2022-10-06T03:45:32.882Z,93
2022-10-06T03:46:00.781Z,93
2022-10-06T03:46:31.362Z,93
2022-10-06T03:47:02.378Z,93
2022-10-06T03:47:33.310Z,93
2022-10-06T03:48:04.382Z,93
2022-10-06T03:48:35.695Z,93
2022-10-06T03:49:05.951Z,93
2022-10-06T03:49:39.042Z,93
2022-10-06T03:50:10.988Z,94
2022-10-06T03:50:39.888Z,94
2022-10-06T03:51:10.742Z,94
2022-10-06T03:51:41.432Z,94
2022-10-06T03:52:12.284Z,94
2022-10-06T03:52:43.205Z,94
2022-10-06T03:53:14.552Z,94
2022-10-06T03:53:45.071Z,94
2022-10-06T03:54:16.065Z,94
2022-10-06T03:54:49.000Z,94
2022-10-06T03:55:20.032Z,94
2022-10-06T03:55:49.816Z,94
2022-10-06T03:56:20.595Z,94
2022-10-06T03:56:51.192Z,94
2022-10-06T03:57:22.060Z,94
2022-10-06T03:57:53.782Z,94
2022-10-06T03:58:24.648Z,94
2022-10-06T03:58:55.374Z,95
2022-10-06T03:59:26.442Z,95
2022-10-06T03:59:59.970Z,94
2022-10-06T04:00:29.785Z,94
2022-10-06T04:00:59.960Z,94
2022-10-06T04:01:31.091Z,94
2022-10-06T04:02:19.554Z,94
2022-10-06T04:02:32.467Z,94
2022-10-06T04:03:03.746Z,94
2022-10-06T04:03:34.344Z,94
2022-10-06T04:04:05.970Z,94
2022-10-06T04:04:38.048Z,94
2022-10-06T04:05:08.753Z,94
2022-10-06T04:05:38.996Z,95
2022-10-06T04:06:10.455Z,95
2022-10-06T04:06:41.085Z,95
2022-10-06T04:07:11.249Z,95
2022-10-06T04:07:42.693Z,95
2022-10-06T04:08:13.302Z,95
2022-10-06T04:08:44.278Z,96
2022-10-06T04:09:47.633Z,96
2022-10-06T04:10:18.751Z,96
2022-10-06T04:10:48.347Z,96
2022-10-06T04:11:38.921Z,96
2022-10-06T04:11:51.457Z,96
2022-10-06T04:12:21.401Z,96
2022-10-06T04:12:52.498Z,96
2022-10-06T04:13:23.327Z,96
2022-10-06T04:13:54.389Z,96
2022-10-06T04:14:25.954Z,96
2022-10-06T04:14:59.934Z,97
2022-10-06T04:15:38.721Z,97
2022-10-06T04:15:58.526Z,97
2022-10-06T04:16:31.804Z,97
2022-10-06T04:17:02.473Z,97
2022-10-06T04:17:32.422Z,97
2022-10-06T04:18:03.268Z,97
2022-10-06T04:18:33.462Z,97
2022-10-06T04:19:05.379Z,97
2022-10-06T04:19:35.212Z,97
2022-10-06T04:20:07.777Z,97
2022-10-06T04:20:37.473Z,97
2022-10-06T04:21:10.150Z,97
2022-10-06T04:21:42.006Z,97
2022-10-06T04:22:11.263Z,98
2022-10-06T04:22:41.557Z,98
2022-10-06T04:23:12.869Z,98
2022-10-06T04:23:43.517Z,98
2022-10-06T04:24:16.262Z,98
2022-10-06T04:24:45.673Z,98
2022-10-06T04:25:16.485Z,98
2022-10-06T04:25:47.382Z,98
2022-10-06T04:26:20.615Z,98
2022-10-06T04:26:51.395Z,98
2022-10-06T04:27:21.321Z,98
2022-10-06T04:27:53.234Z,98
2022-10-06T04:28:22.624Z,98
2022-10-06T04:28:54.054Z,98
2022-10-06T04:29:42.271Z,98
2022-10-06T04:29:55.335Z,98
2022-10-06T04:30:33.808Z,98
2022-10-06T04:30:57.617Z,97
2022-10-06T04:31:29.485Z,97
2022-10-06T04:32:03.413Z,97
2022-10-06T04:32:30.868Z,97
2022-10-06T04:33:01.568Z,97
2022-10-06T04:33:32.433Z,97
2022-10-06T04:34:03.976Z,97
2022-10-06T04:34:52.078Z,97
2022-10-06T04:35:06.438Z,96
2022-10-06T04:35:37.376Z,96
2022-10-06T04:36:09.304Z,96
2022-10-06T04:36:40.453Z,96
2022-10-06T04:37:09.826Z,96
2022-10-06T04:37:41.371Z,95
2022-10-06T04:38:11.658Z,95
2022-10-06T04:38:42.256Z,95
2022-10-06T04:39:13.575Z,95
2022-10-06T04:39:44.463Z,95
2022-10-06T04:40:15.907Z,95
2022-10-06T04:40:46.092Z,95
2022-10-06T04:41:18.982Z,95
2022-10-06T04:41:50.306Z,95
2022-10-06T04:42:19.951Z,95
2022-10-06T04:42:51.400Z,95
2022-10-06T04:43:21.469Z,94
2022-10-06T04:43:52.630Z,94
2022-10-06T04:44:23.181Z,94
2022-10-06T04:44:54.286Z,93
2022-10-06T04:45:25.971Z,93
2022-10-06T04:45:56.436Z,92
2022-10-06T04:46:42.071Z,91
2022-10-06T04:47:00.801Z,91
2022-10-06T04:47:30.671Z,91
2022-10-06T04:48:00.822Z,90
2022-10-06T04:48:32.221Z,90
2022-10-06T04:49:02.439Z,91
2022-10-06T04:49:33.583Z,91
2022-10-06T04:50:05.051Z,91
2022-10-06T04:50:35.664Z,90
2022-10-06T04:51:06.179Z,90
2022-10-06T04:51:39.055Z,91
2022-10-06T04:52:09.280Z,91
2022-10-06T04:52:39.702Z,91
2022-10-06T04:53:12.012Z,90
2022-10-06T04:53:41.436Z,90
2022-10-06T04:54:12.687Z,90
2022-10-06T04:54:43.440Z,89
2022-10-06T04:55:14.856Z,88
2022-10-06T04:55:45.447Z,88
2022-10-06T04:56:33.742Z,89
2022-10-06T04:56:49.121Z,88
2022-10-06T04:57:20.192Z,88
2022-10-06T04:57:50.207Z,89
2022-10-06T04:58:21.145Z,89
2022-10-06T04:58:51.642Z,88
2022-10-06T04:59:53.717Z,88
2022-10-06T05:00:25.639Z,89
2022-10-06T05:00:55.458Z,89
2022-10-06T05:01:28.408Z,89
2022-10-06T05:01:59.222Z,89
2022-10-06T05:02:30.071Z,89
2022-10-06T05:02:59.632Z,89
2022-10-06T05:03:30.780Z,89
2022-10-06T05:04:05.947Z,89
2022-10-06T05:04:32.368Z,89
2022-10-06T05:05:04.912Z,89
2022-10-06T05:05:39.186Z,89
2022-10-06T05:06:11.743Z,88
2022-10-06T05:07:23.167Z,88
2022-10-06T05:07:42.272Z,89
2022-10-06T05:08:11.164Z,88
2022-10-06T05:08:41.089Z,88
2022-10-06T05:09:11.422Z,87
2022-10-06T05:11:42.114Z,87
2022-10-06T05:11:48.350Z,87
2022-10-06T05:12:20.344Z,88
2022-10-06T05:12:51.711Z,88
2022-10-06T05:13:20.359Z,87
2022-10-06T05:28:51.668Z,88
2022-10-06T05:29:23.970Z,86
2022-10-06T05:29:57.024Z,85
2022-10-06T05:30:26.893Z,84
2022-10-06T05:31:00.088Z,84
2022-10-06T05:31:25.231Z,84
2022-10-06T05:31:55.785Z,82
2022-10-06T05:32:31.406Z,83
2022-10-06T05:33:00.628Z,84
2022-10-06T05:33:30.019Z,84
2022-10-06T05:34:00.617Z,85
2022-10-06T05:34:31.195Z,84
2022-10-06T05:35:02.337Z,84
2022-10-06T05:35:32.688Z,82
2022-10-06T05:36:04.457Z,83
2022-10-06T05:36:34.467Z,84
2022-10-06T05:37:05.563Z,83
2022-10-06T05:37:36.662Z,83
2022-10-06T05:38:09.877Z,84
2022-10-06T05:38:40.980Z,85
2022-10-06T05:39:10.490Z,84
2022-10-06T05:39:40.714Z,84
2022-10-06T05:40:12.175Z,84
2022-10-06T05:40:42.728Z,83
2022-10-06T05:41:13.518Z,83
2022-10-06T05:41:45.226Z,83
2022-10-06T05:42:16.217Z,84
2022-10-06T05:42:47.526Z,84
2022-10-06T05:43:19.843Z,84
2022-10-06T05:43:49.994Z,83
2022-10-06T05:44:20.467Z,84
2022-10-06T05:44:51.441Z,84
2022-10-06T05:45:41.394Z,84
2022-10-06T05:45:53.885Z,84
2022-10-06T05:46:24.461Z,84
2022-10-06T05:46:54.669Z,85
2022-10-06T05:47:25.835Z,85
2022-10-06T05:47:56.701Z,84
2022-10-06T05:48:29.327Z,85
2022-10-06T05:49:00.424Z,84
2022-10-06T05:49:31.514Z,83
2022-10-06T05:50:01.546Z,84
2022-10-06T05:50:31.723Z,83
2022-10-06T05:51:02.772Z,84
2022-10-06T05:51:33.780Z,84
2022-10-06T05:52:05.268Z,82
2022-10-06T05:52:36.765Z,83
2022-10-06T05:53:06.777Z,83
2022-10-06T05:53:39.377Z,83
2022-10-06T05:54:10.464Z,83
2022-10-06T05:54:41.388Z,83
2022-10-06T05:55:11.189Z,83
2022-10-06T05:55:41.938Z,83
2022-10-06T05:56:12.823Z,83
2022-10-06T05:56:44.083Z,83
2022-10-06T05:57:15.121Z,83
2022-10-06T05:57:45.932Z,83
2022-10-06T05:58:18.597Z,83
2022-10-06T05:58:48.939Z,83
2022-10-06T05:59:21.412Z,83
2022-10-06T05:59:50.970Z,84
2022-10-06T06:00:22.335Z,83
2022-10-06T06:00:51.936Z,83
2022-10-06T06:01:22.701Z,83
2022-10-06T06:01:53.953Z,84
2022-10-06T06:02:24.981Z,85
2022-10-06T06:02:55.917Z,84
2022-10-06T06:03:44.172Z,85
2022-10-06T06:03:59.973Z,85
2022-10-06T06:04:31.066Z,84
2022-10-06T06:05:01.291Z,84
2022-10-06T06:05:31.897Z,84
2022-10-06T06:07:01.198Z,85
2022-10-06T06:07:03.945Z,85
2022-10-06T06:07:35.718Z,85
2022-10-06T06:08:05.897Z,84
2022-10-06T06:08:37.065Z,85
2022-10-06T06:09:08.926Z,85
2022-10-06T06:09:40.907Z,85
2022-10-06T06:10:11.604Z,84
2022-10-06T06:10:41.205Z,84
2022-10-06T06:11:12.376Z,85
2022-10-06T06:11:42.983Z,85
2022-10-06T06:12:14.589Z,85
2022-10-06T06:12:44.816Z,85
2022-10-06T06:13:16.078Z,84
2022-10-06T06:13:46.849Z,85
2022-10-06T06:14:18.909Z,85
2022-10-06T06:14:51.222Z,85
2022-10-06T06:15:21.783Z,85
2022-10-06T06:15:51.843Z,85
2022-10-06T06:16:22.434Z,85
2022-10-06T06:16:52.900Z,84
2022-10-06T06:17:24.959Z,85
2022-10-06T06:17:54.567Z,85
2022-10-06T06:18:26.352Z,85
2022-10-06T06:18:56.820Z,85
2022-10-06T06:19:29.945Z,85
2022-10-06T06:20:01.404Z,85
2022-10-06T06:20:31.686Z,85
2022-10-06T06:21:02.030Z,85
2022-10-06T06:21:31.989Z,86
2022-10-06T06:22:02.792Z,86
2022-10-06T06:22:34.290Z,86
2022-10-06T06:23:05.276Z,86
2022-10-06T06:23:36.268Z,86
2022-10-06T06:24:07.165Z,86
2022-10-06T06:24:38.017Z,85
2022-10-06T06:25:11.321Z,86
2022-10-06T06:25:41.167Z,86
2022-10-06T06:26:12.262Z,86
2022-10-06T06:26:51.753Z,85
2022-10-06T06:27:13.379Z,86
2022-10-06T06:27:43.815Z,85
2022-10-06T06:28:15.255Z,85
2022-10-06T06:28:46.051Z,85
2022-10-06T06:29:17.007Z,84
2022-10-06T06:29:49.016Z,85
2022-10-06T06:30:22.897Z,84
2022-10-06T06:30:52.133Z,84
2022-10-06T06:31:39.074Z,84
2022-10-06T06:31:52.303Z,84
2022-10-06T06:32:23.250Z,84
2022-10-06T06:32:54.063Z,84
2022-10-06T06:33:25.588Z,83
2022-10-06T06:33:56.148Z,84
2022-10-06T06:34:26.941Z,83
2022-10-06T06:34:57.928Z,83
2022-10-06T06:35:31.818Z,83
2022-10-06T06:36:01.921Z,82
2022-10-06T06:36:31.518Z,82
2022-10-06T06:37:07.475Z,81
2022-10-06T06:37:32.878Z,80
2022-10-06T06:38:04.227Z,80
2022-10-06T06:38:34.827Z,80
2022-10-06T06:39:06.353Z,79
2022-10-06T06:39:37.022Z,79
2022-10-06T06:40:09.921Z,79
2022-10-06T06:40:41.602Z,77
2022-10-06T06:41:11.866Z,76
2022-10-06T06:41:41.637Z,77
2022-10-06T06:42:12.561Z,76
2022-10-06T06:42:44.113Z,76
2022-10-06T06:43:14.775Z,77
2022-10-06T06:43:45.044Z,74
2022-10-06T06:44:16.436Z,74
2022-10-06T06:44:47.151Z,74
2022-10-06T06:45:19.231Z,74
2022-10-06T06:45:51.342Z,75
2022-10-06T06:46:21.460Z,75
2022-10-06T06:46:52.290Z,75
2022-10-06T06:47:24.448Z,75
2022-10-06T06:47:53.379Z,76
2022-10-06T06:48:24.127Z,76
2022-10-06T06:48:55.853Z,75
2022-10-06T06:49:43.148Z,74
2022-10-06T06:49:57.087Z,74
2022-10-06T06:50:28.804Z,75
2022-10-06T06:50:58.872Z,74
2022-10-06T06:51:32.215Z,74
2022-10-06T06:52:03.696Z,73
2022-10-06T06:52:32.702Z,72
2022-10-06T06:53:03.825Z,73
2022-10-06T06:53:34.503Z,72
2022-10-06T06:54:05.779Z,72
2022-10-06T06:54:36.207Z,73
2022-10-06T06:55:12.451Z,72
2022-10-06T06:55:37.956Z,72
2022-10-06T06:56:11.577Z,73
2022-10-06T06:56:42.359Z,72
2022-10-06T06:57:12.475Z,72
2022-10-06T06:57:42.208Z,73
2022-10-06T06:58:43.988Z,73
2022-10-06T06:59:14.975Z,73
2022-10-06T06:59:46.030Z,74
2022-10-06T07:00:18.342Z,73
2022-10-06T07:00:47.824Z,72
2022-10-06T07:01:20.779Z,71
2022-10-06T07:01:51.697Z,71
2022-10-06T07:02:21.611Z,71
2022-10-06T07:02:52.768Z,71
2022-10-06T07:03:52.158Z,71
2022-10-06T07:04:25.132Z,70
2022-10-06T07:04:55.867Z,71
2022-10-06T07:05:27.546Z,71
2022-10-06T07:06:06.699Z,70
2022-10-06T07:07:01.840Z,69
2022-10-06T07:07:32.085Z,69
2022-10-06T07:08:02.872Z,69
2022-10-06T07:08:33.362Z,71
2022-10-06T07:09:04.465Z,69
2022-10-06T07:09:35.033Z,69
2022-10-06T07:10:07.151Z,69
2022-10-06T07:10:37.017Z,69
2022-10-06T07:11:08.164Z,71
2022-10-06T07:11:41.051Z,71
2022-10-06T07:12:12.264Z,69
2022-10-06T07:12:42.490Z,71
2022-10-06T07:13:13.358Z,70
2022-10-06T07:13:43.017Z,70
2022-10-06T07:14:14.477Z,70
2022-10-06T07:14:44.942Z,70
2022-10-06T07:15:47.712Z,69
2022-10-06T07:16:18.801Z,69
2022-10-06T07:16:50.465Z,69
2022-10-06T07:17:21.995Z,69
2022-10-06T07:17:52.621Z,68
2022-10-06T07:18:22.995Z,69
2022-10-06T07:18:54.868Z,67
2022-10-06T07:19:48.221Z,68
2022-10-06T07:19:55.193Z,67
2022-10-06T07:20:42.670Z,69
2022-10-06T07:20:57.061Z,69
2022-10-06T07:21:28.451Z,68
2022-10-06T07:22:00.746Z,68
2022-10-06T07:22:34.306Z,67
2022-10-06T07:23:03.349Z,67
2022-10-06T07:23:33.331Z,68
2022-10-06T07:24:03.679Z,68
2022-10-06T07:24:34.105Z,67
2022-10-06T07:25:05.767Z,69
2022-10-06T07:25:55.137Z,67
2022-10-06T07:26:07.399Z,67
2022-10-06T07:26:38.353Z,67
2022-10-06T07:27:09.494Z,67
2022-10-06T07:27:42.334Z,67
2022-10-06T07:28:12.484Z,66
2022-10-06T07:28:42.649Z,68
2022-10-06T07:29:13.474Z,68
2022-10-06T07:29:44.572Z,69
2022-10-06T07:30:16.068Z,68
2022-10-06T07:30:46.216Z,68
2022-10-06T07:31:17.324Z,69
2022-10-06T07:31:48.892Z,68
2022-10-06T07:32:21.472Z,69
2022-10-06T07:32:57.385Z,67
2022-10-06T07:33:22.630Z,69
2022-10-06T07:33:52.579Z,68
2022-10-06T07:34:24.215Z,70
2022-10-06T07:34:54.730Z,67
2022-10-06T07:35:25.614Z,66
2022-10-06T07:35:56.155Z,67
2022-10-06T07:36:27.058Z,67
2022-10-06T07:37:01.570Z,68
2022-10-06T07:37:30.659Z,68
2022-10-06T07:38:03.268Z,69
2022-10-06T07:38:32.523Z,68
2022-10-06T07:39:02.980Z,65
2022-10-06T07:39:33.344Z,66
2022-10-06T07:40:05.341Z,66
2022-10-06T07:40:36.024Z,66
2022-10-06T07:41:20.035Z,67
2022-10-06T07:41:36.970Z,66
2022-10-06T07:42:08.243Z,67
2022-10-06T07:42:39.275Z,66
2022-10-06T07:43:12.932Z,68
2022-10-06T07:43:42.527Z,67
2022-10-06T07:44:12.934Z,66
2022-10-06T07:44:43.213Z,66
2022-10-06T07:45:14.679Z,66
2022-10-06T07:45:45.782Z,64
2022-10-06T07:46:16.353Z,64
2022-10-06T07:46:47.369Z,67
2022-10-06T07:47:18.534Z,65
2022-10-06T07:47:50.605Z,65
2022-10-06T07:48:22.851Z,64
2022-10-06T07:48:53.019Z,65
2022-10-06T07:49:23.565Z,66
2022-10-06T07:49:53.749Z,65
2022-10-06T07:50:24.736Z,63
2022-10-06T07:50:55.808Z,66
2022-10-06T07:51:26.133Z,65
2022-10-06T07:52:04.020Z,63
2022-10-06T07:52:28.537Z,64